createdAt,value
2018-12-17T00:04:08.597Z,26.53
2018-12-17T00:09:01.734Z,26.97
2018-12-17T00:13:54.965Z,28.60
2018-12-17T00:18:50.499Z,25.43
2018-12-17T00:23:43.539Z,24.87
2018-12-17T00:28:36.408Z,25.83
2018-12-17T00:33:29.684Z,25.80
2018-12-17T00:38:22.776Z,26.73
2018-12-17T00:43:16.233Z,26.00
2018-12-17T00:48:09.304Z,24.80
2018-12-17T00:53:05.190Z,24.33
2018-12-17T00:57:58.601Z,26.83
2018-12-17T01:02:51.622Z,23.63
2018-12-17T01:07:45.544Z,26.00
2018-12-17T01:12:38.446Z,24.97
2018-12-17T01:17:31.516Z,25.33
2018-12-17T01:22:24.587Z,25.57
2018-12-17T01:27:17.581Z,26.07
2018-12-17T01:32:10.631Z,26.27
2018-12-17T01:37:03.898Z,25.93
2018-12-17T01:41:57.174Z,28.17
2018-12-17T01:46:50.347Z,26.20
2018-12-17T01:51:43.513Z,27.23
2018-12-17T01:56:36.590Z,26.63
2018-12-17T02:01:29.661Z,26.97
2018-12-17T02:06:22.629Z,27.50
2018-12-17T02:11:15.765Z,26.37
2018-12-17T02:16:08.975Z,27.27
2018-12-17T02:21:02.150Z,26.97
2018-12-17T02:25:54.956Z,28.37
2018-12-17T02:30:49.108Z,27.57
2018-12-17T02:35:42.221Z,28.67
2018-12-17T02:40:35.313Z,29.60
2018-12-17T02:45:28.579Z,31.10
2018-12-17T02:50:22.837Z,28.47
2018-12-17T02:55:17.533Z,28.20
2018-12-17T03:00:10.808Z,27.53
2018-12-17T03:05:06.111Z,30.00
2018-12-17T03:09:59.360Z,31.20
2018-12-17T03:14:52.500Z,30.17
2018-12-17T03:19:45.751Z,28.07
2018-12-17T03:24:38.925Z,28.27
2018-12-17T03:29:31.893Z,28.53
2018-12-17T03:34:24.963Z,28.33
2018-12-17T03:39:18.853Z,28.33
2018-12-17T03:44:11.696Z,27.30
2018-12-17T03:49:04.789Z,28.23
2018-12-17T03:53:59.706Z,27.23
2018-12-17T03:58:59.071Z,27.17
2018-12-17T04:03:48.718Z,26.30
2018-12-17T04:08:58.289Z,26.07
2018-12-17T04:13:51.881Z,27.87
2018-12-17T04:18:46.623Z,27.43
2018-12-17T04:23:39.737Z,26.53
2018-12-17T04:28:32.802Z,24.63
2018-12-17T04:33:26.078Z,26.77
2018-12-17T04:38:19.049Z,27.13
2018-12-17T04:43:12.021Z,27.97
2018-12-17T04:48:05.752Z,25.33
2018-12-17T04:52:58.728Z,27.57
2018-12-17T04:57:52.251Z,27.97
2018-12-17T05:02:45.388Z,26.87
2018-12-17T05:07:39.272Z,27.33
2018-12-17T05:12:34.477Z,25.13
2018-12-17T05:17:29.731Z,26.17
2018-12-17T05:22:23.029Z,25.77
2018-12-17T05:27:16.099Z,25.77
2018-12-17T05:32:11.114Z,27.03
2018-12-17T05:37:04.812Z,28.07
2018-12-17T05:41:57.972Z,27.30
2018-12-17T05:46:51.247Z,31.23
2018-12-17T05:51:44.228Z,28.57
2018-12-17T05:56:37.137Z,29.03
2018-12-17T06:01:31.278Z,26.70
2018-12-17T06:06:25.219Z,24.83
2018-12-17T06:11:19.559Z,25.90
2018-12-17T06:16:12.525Z,26.70
2018-12-17T06:21:05.567Z,25.33
2018-12-17T06:25:58.475Z,25.53
2018-12-17T06:30:51.550Z,22.97
2018-12-17T06:35:44.614Z,24.43
2018-12-17T06:40:39.737Z,24.97
2018-12-17T06:45:32.823Z,25.03
2018-12-17T06:50:25.809Z,24.67
2018-12-17T06:55:18.958Z,24.53
2018-12-17T07:00:12.064Z,24.60
2018-12-17T07:05:06.830Z,23.70
2018-12-17T07:10:00.616Z,23.63
2018-12-17T07:14:54.607Z,23.27
2018-12-17T07:19:48.270Z,24.47
2018-12-17T07:24:43.181Z,23.47
2018-12-17T07:29:36.080Z,23.47
2018-12-17T07:34:29.442Z,20.70
2018-12-17T07:39:22.313Z,20.33
2018-12-17T07:44:16.552Z,22.30
2018-12-17T07:49:09.482Z,20.37
2018-12-17T07:54:02.652Z,20.90
2018-12-17T07:58:55.526Z,20.73
2018-12-17T08:03:48.595Z,18.80
2018-12-17T08:08:41.537Z,19.80
2018-12-17T08:13:35.958Z,18.30
2018-12-17T08:18:31.179Z,19.63
2018-12-17T08:23:24.966Z,18.53
2018-12-17T08:28:19.136Z,17.43
2018-12-17T08:33:12.028Z,17.90
2018-12-17T08:38:11.267Z,16.10
2018-12-17T08:43:06.072Z,16.57
2018-12-17T08:48:00.769Z,19.77
2018-12-17T08:52:55.104Z,17.77
2018-12-17T08:57:48.063Z,19.03
2018-12-17T09:02:41.144Z,42.80
2018-12-17T09:07:34.890Z,20.60
2018-12-17T09:12:28.882Z,20.20
2018-12-17T09:17:22.315Z,19.00
2018-12-17T09:22:15.333Z,20.43
2018-12-17T09:27:08.954Z,20.57
2018-12-17T09:32:03.313Z,21.00
2018-12-17T09:36:56.283Z,21.60
2018-12-17T09:41:49.260Z,23.53
2018-12-17T09:46:42.883Z,21.70
2018-12-17T09:51:35.909Z,24.17
2018-12-17T09:56:30.816Z,21.03
2018-12-17T10:01:24.972Z,21.43
2018-12-17T10:06:20.468Z,23.77
2018-12-17T10:11:13.921Z,22.30
2018-12-17T10:16:06.887Z,24.00
2018-12-17T10:20:59.754Z,23.57
2018-12-17T10:25:52.887Z,23.77
2018-12-17T10:30:45.895Z,23.73
2018-12-17T10:35:38.861Z,25.20
2018-12-17T10:40:33.774Z,24.30
2018-12-17T10:45:27.875Z,25.83
2018-12-17T10:50:22.030Z,25.77
2018-12-17T10:55:16.719Z,25.40
2018-12-17T11:00:13.308Z,24.40
2018-12-17T11:05:08.565Z,24.73
2018-12-17T11:10:05.681Z,26.27
2018-12-17T11:15:04.198Z,25.97
2018-12-17T11:20:01.672Z,25.10
2018-12-17T11:24:58.848Z,25.40
2018-12-17T11:29:51.917Z,25.77
2018-12-17T11:34:44.889Z,24.27
2018-12-17T11:39:38.374Z,25.17
2018-12-17T11:44:31.594Z,27.53
2018-12-17T11:49:25.386Z,28.40
2018-12-17T11:54:19.234Z,28.03
2018-12-17T11:59:13.491Z,23.87
2018-12-17T12:04:06.557Z,23.87
2018-12-17T12:09:02.221Z,22.67
2018-12-17T12:13:58.950Z,22.13
2018-12-17T12:18:52.080Z,22.13
2018-12-17T12:23:45.052Z,25.67
2018-12-17T12:28:38.087Z,24.93
2018-12-17T12:33:32.794Z,25.43
2018-12-17T12:38:26.581Z,29.47
2018-12-17T12:43:20.620Z,26.00
2018-12-17T12:48:13.747Z,23.50
2018-12-17T12:53:06.765Z,27.90
2018-12-17T12:58:03.649Z,24.40
2018-12-17T13:02:54.904Z,23.80
2018-12-17T13:07:48.280Z,26.13
2018-12-17T13:12:42.193Z,22.60
2018-12-17T13:17:35.863Z,23.07
2018-12-17T13:22:29.052Z,23.83
2018-12-17T13:27:22.102Z,22.83
2018-12-17T13:32:17.162Z,22.50
2018-12-17T13:37:10.903Z,22.80
2018-12-17T13:42:04.381Z,26.30
2018-12-17T13:46:58.288Z,23.70
2018-12-17T13:51:56.974Z,25.80
2018-12-17T13:56:49.841Z,24.73
2018-12-17T14:01:48.222Z,27.83
2018-12-17T14:06:40.181Z,25.90
2018-12-17T14:11:33.889Z,27.07
2018-12-17T14:16:28.989Z,27.53
2018-12-17T14:21:30.395Z,33.47
2018-12-17T14:26:23.420Z,29.87
2018-12-17T14:31:16.589Z,30.87
2018-12-17T14:36:10.631Z,35.23
2018-12-17T14:41:04.266Z,38.30
2018-12-17T14:45:57.236Z,37.33
2018-12-17T14:50:51.127Z,36.27
2018-12-17T14:55:44.193Z,34.17
2018-12-17T15:00:37.510Z,33.40
2018-12-17T15:05:30.528Z,31.53
2018-12-17T15:10:23.409Z,30.10
2018-12-17T15:15:16.383Z,32.43
2018-12-17T15:20:11.289Z,34.30
2018-12-17T15:25:06.990Z,34.43
2018-12-17T15:30:00.295Z,37.30
2018-12-17T15:34:53.185Z,36.60
2018-12-17T15:39:48.280Z,35.47
2018-12-17T15:44:43.399Z,35.73
2018-12-17T15:49:36.475Z,35.97
2018-12-17T15:54:29.537Z,35.23
2018-12-17T15:59:22.818Z,34.57
2018-12-17T16:04:15.883Z,34.03
2018-12-17T16:09:08.860Z,37.77
2018-12-17T16:14:02.130Z,47.80
2018-12-17T16:18:55.916Z,34.80
2018-12-17T16:23:49.535Z,38.20
2018-12-17T16:28:42.431Z,35.83
2018-12-17T16:33:35.563Z,35.33
2018-12-17T16:38:29.830Z,34.10
2018-12-17T16:43:22.965Z,32.93
2018-12-17T16:48:16.793Z,34.70
2018-12-17T16:53:10.158Z,33.97
2018-12-17T16:58:04.675Z,32.57
2018-12-17T17:02:58.127Z,33.97
2018-12-17T17:07:51.123Z,34.00
2018-12-17T17:12:45.418Z,31.13
2018-12-17T17:17:38.696Z,34.50
2018-12-17T17:22:38.732Z,31.80
2018-12-17T17:27:32.826Z,33.17
2018-12-17T17:32:25.898Z,52.03
2018-12-17T17:37:19.507Z,39.90
2018-12-17T17:42:12.549Z,37.83
2018-12-17T17:47:05.743Z,51.77
2018-12-17T17:51:59.447Z,37.77
2018-12-17T17:56:52.373Z,41.63
2018-12-17T18:01:45.282Z,36.17
2018-12-17T18:06:41.087Z,33.23
2018-12-17T18:11:34.419Z,36.87
2018-12-17T18:16:27.622Z,34.73
2018-12-17T18:21:20.496Z,32.80
2018-12-17T18:26:13.562Z,34.23
2018-12-17T18:31:06.529Z,32.23
2018-12-17T18:35:59.538Z,36.27
2018-12-17T18:40:52.465Z,39.27
2018-12-17T18:45:45.557Z,37.47
2018-12-17T18:50:38.504Z,34.87
2018-12-17T18:55:32.068Z,34.73
2018-12-17T19:00:27.109Z,36.53
2018-12-17T19:05:20.171Z,37.23
2018-12-17T19:10:13.042Z,34.90
2018-12-17T19:15:06.516Z,34.80
2018-12-17T19:19:59.588Z,36.70
2018-12-17T19:24:52.657Z,34.43
2018-12-17T19:29:45.598Z,34.37
2018-12-17T19:34:38.798Z,34.57
2018-12-17T19:39:31.809Z,32.50
2018-12-17T19:44:24.735Z,34.73
2018-12-17T19:49:17.861Z,35.00
2018-12-17T19:54:10.773Z,38.33
2018-12-17T19:59:03.845Z,37.67
2018-12-17T20:03:56.812Z,36.07
2018-12-17T20:08:49.825Z,50.60
2018-12-17T20:13:43.536Z,45.33
2018-12-17T20:18:38.187Z,47.07
2018-12-17T20:23:32.240Z,32.43
2018-12-17T20:28:25.342Z,31.80
2018-12-17T20:33:18.205Z,34.27
2018-12-17T20:38:12.558Z,31.37
2018-12-17T20:43:06.342Z,30.03
2018-12-17T20:48:01.213Z,29.13
2018-12-17T20:52:54.279Z,30.47
2018-12-17T20:57:47.449Z,29.87
2018-12-17T21:02:40.315Z,32.23
2018-12-17T21:07:33.815Z,29.87
2018-12-17T21:12:27.890Z,29.20
2018-12-17T21:17:20.957Z,28.97
2018-12-17T21:22:14.232Z,31.20
2018-12-17T21:27:07.449Z,29.70
2018-12-17T21:32:01.399Z,28.67
2018-12-17T21:36:57.420Z,29.87
2018-12-17T21:41:50.215Z,32.53
2018-12-17T21:46:43.274Z,28.77
2018-12-17T21:51:36.421Z,32.00
2018-12-17T21:56:30.029Z,31.33
2018-12-17T22:01:24.530Z,28.60
2018-12-17T22:06:17.703Z,28.73
2018-12-17T22:11:10.772Z,29.07
2018-12-17T22:16:05.008Z,25.83
2018-12-17T22:20:58.647Z,29.57
2018-12-17T22:25:52.851Z,27.13
2018-12-17T22:30:47.242Z,28.33
2018-12-17T22:35:40.293Z,27.23
2018-12-17T22:40:33.443Z,26.23
2018-12-17T22:45:26.265Z,25.97
2018-12-17T22:50:19.910Z,23.90
2018-12-17T22:55:14.161Z,25.17
2018-12-17T23:00:09.578Z,24.63
2018-12-17T23:05:02.636Z,25.43
2018-12-17T23:10:07.280Z,25.73
2018-12-17T23:15:12.022Z,28.70
2018-12-17T23:20:05.302Z,25.10
2018-12-17T23:24:58.172Z,23.80
2018-12-17T23:29:51.135Z,25.70
2018-12-17T23:34:44.100Z,23.77
2018-12-17T23:39:36.965Z,23.43
2018-12-17T23:44:33.874Z,25.07
2018-12-17T23:49:27.917Z,23.33
2018-12-17T23:54:21.820Z,26.77
2018-12-17T23:59:15.084Z,26.03
